Terminal Aerodrome Forecast
Issued by NWS Pittsburgh, PA

Home | Current Version | Previous Version | Text Only | Print | Product List | Glossary On
Versions: 1 2 3 4 5 6 7 8 9 10 11 12 13 14 15 16 17 18 19 20 21 22 23 24 25 26 27 28 29 30 31 32 33 34
567
FTUS41 KPBZ 231603 AAC
TAFPIT
TAF AMD
KPIT 231603Z 2316/2418 08012G22KT P6SM -RA OVC015
     FM232100 05012KT 3SM -RA BR OVC008
     FM240200 02010KT 3SM -RASN BR OVC003
     FM240700 34005KT P6SM VCSH OVC008
     FM241200 31005KT P6SM OVC010=

USA.gov is the U.S. government's official web portal to all federal, state and local government web resources and services.